THY2DM LTBJ-LTFM
Flight info
| Callsign | THY2DM |
|---|---|
| Flight time | N/A |
| Altitude | 28000 |
| Route | BERGO N618 DUGLA/N0429F270 Z713 INBET |
| Aircraft | A20N/M-SDE2E3FGHIRWXY/LB1 |
Departure
| Time | N/A |
|---|---|
| Airport | Adnan Menderes International Airport (LTBJ) |
Arrival
| Time | 2026-02-18 23:18 |
|---|---|
| Airport | İstanbul Airport (LTFM) |
| Time | Latitude | Longitude | Altitude | Speed | Heading |
|---|---|---|---|---|---|
| 2026-02-18 22:50 | 40.41216 | 27.40112 | 13877 ft | 373 kts | 28° |
| 2026-02-18 22:50 | 40.43307 | 27.42034 | 12808 ft | 361 kts | 28° |
| 2026-02-18 22:50 | 40.45334 | 27.43891 | 11827 ft | 351 kts | 29° |
| 2026-02-18 22:50 | 40.47277 | 27.45674 | 11532 ft | 325 kts | 29° |
| 2026-02-18 22:51 | 40.49049 | 27.47312 | 11449 ft | 305 kts | 29° |
| 2026-02-18 22:51 | 40.50781 | 27.48899 | 11388 ft | 303 kts | 28° |
| 2026-02-18 22:51 | 40.52506 | 27.50475 | 11315 ft | 297 kts | 28° |
| 2026-02-18 22:51 | 40.54158 | 27.51994 | 11253 ft | 283 kts | 28° |
| 2026-02-18 22:52 | 40.55747 | 27.53455 | 11185 ft | 278 kts | 28° |
| 2026-02-18 22:52 | 40.57332 | 27.54911 | 11116 ft | 277 kts | 28° |
| 2026-02-18 22:52 | 40.58914 | 27.56366 | 11060 ft | 277 kts | 28° |
| 2026-02-18 22:52 | 40.60496 | 27.57822 | 11004 ft | 277 kts | 29° |
| 2026-02-18 22:53 | 40.63644 | 27.60729 | 10872 ft | 276 kts | 29° |
| 2026-02-18 22:53 | 40.65211 | 27.62179 | 10811 ft | 275 kts | 29° |
| 2026-02-18 22:53 | 40.66759 | 27.63617 | 10749 ft | 271 kts | 29° |
| 2026-02-18 22:54 | 40.68295 | 27.65042 | 10687 ft | 270 kts | 29° |
| 2026-02-18 22:54 | 40.69833 | 27.66464 | 10627 ft | 270 kts | 29° |
| 2026-02-18 22:54 | 40.71368 | 27.67882 | 10567 ft | 270 kts | 29° |
| 2026-02-18 22:54 | 40.72904 | 27.69303 | 10507 ft | 270 kts | 29° |
| 2026-02-18 22:55 | 40.74439 | 27.70725 | 10447 ft | 269 kts | 29° |
| 2026-02-18 22:55 | 40.75971 | 27.72147 | 10391 ft | 269 kts | 30° |
| 2026-02-18 22:55 | 40.77500 | 27.73570 | 10334 ft | 272 kts | 30° |
| 2026-02-18 22:55 | 40.79063 | 27.75026 | 10280 ft | 275 kts | 30° |
| 2026-02-18 22:56 | 40.80626 | 27.76486 | 10215 ft | 275 kts | 30° |
| 2026-02-18 22:56 | 40.82191 | 27.77948 | 10153 ft | 275 kts | 30° |
| 2026-02-18 22:56 | 40.83752 | 27.79407 | 10082 ft | 276 kts | 30° |
| 2026-02-18 22:56 | 40.85304 | 27.80858 | 10031 ft | 271 kts | 30° |
| 2026-02-18 22:57 | 40.88369 | 27.83714 | 9906 ft | 269 kts | 30° |
| 2026-02-18 22:57 | 40.89899 | 27.85139 | 9847 ft | 269 kts | 30° |
| 2026-02-18 22:57 | 40.91427 | 27.86566 | 9799 ft | 268 kts | 30° |
| 2026-02-18 22:58 | 40.92950 | 27.87990 | 9729 ft | 268 kts | 31° |
| 2026-02-18 22:58 | 40.94470 | 27.89412 | 9669 ft | 268 kts | 31° |
| 2026-02-18 22:58 | 40.95989 | 27.90834 | 9604 ft | 267 kts | 31° |
| 2026-02-18 22:58 | 40.97505 | 27.92253 | 9536 ft | 267 kts | 31° |
| 2026-02-18 22:59 | 40.99020 | 27.93673 | 9487 ft | 267 kts | 31° |
| 2026-02-18 22:59 | 41.00535 | 27.95092 | 9418 ft | 266 kts | 31° |
| 2026-02-18 22:59 | 41.02044 | 27.96510 | 9346 ft | 266 kts | 31° |
| 2026-02-18 22:59 | 41.03552 | 27.97926 | 9278 ft | 266 kts | 31° |
| 2026-02-18 23:00 | 41.05061 | 27.99345 | 9213 ft | 266 kts | 31° |
| 2026-02-18 23:00 | 41.06566 | 28.00761 | 9152 ft | 265 kts | 31° |
| 2026-02-18 23:00 | 41.08067 | 28.02173 | 9093 ft | 265 kts | 31° |
| 2026-02-18 23:00 | 41.09568 | 28.03586 | 9029 ft | 264 kts | 31° |
| 2026-02-18 23:01 | 41.12560 | 28.06409 | 8908 ft | 264 kts | 31° |
| 2026-02-18 23:01 | 41.14054 | 28.07818 | 8841 ft | 265 kts | 31° |
| 2026-02-18 23:01 | 41.15557 | 28.09234 | 8776 ft | 265 kts | 31° |
| 2026-02-18 23:02 | 41.17061 | 28.10652 | 8711 ft | 265 kts | 31° |
| 2026-02-18 23:02 | 41.18562 | 28.12068 | 8650 ft | 265 kts | 31° |
| 2026-02-18 23:02 | 41.20062 | 28.13483 | 8568 ft | 264 kts | 31° |
| 2026-02-18 23:02 | 41.21558 | 28.14894 | 8515 ft | 264 kts | 31° |
| 2026-02-18 23:03 | 41.23051 | 28.16303 | 8454 ft | 263 kts | 31° |
| 2026-02-18 23:03 | 41.24545 | 28.17718 | 8389 ft | 263 kts | 31° |
| 2026-02-18 23:03 | 41.26029 | 28.19127 | 8327 ft | 263 kts | 31° |
| 2026-02-18 23:03 | 41.27517 | 28.20537 | 8273 ft | 262 kts | 31° |
| 2026-02-18 23:04 | 41.29007 | 28.21948 | 8192 ft | 262 kts | 31° |
| 2026-02-18 23:04 | 41.30491 | 28.23353 | 8131 ft | 262 kts | 31° |
| 2026-02-18 23:04 | 41.31974 | 28.24762 | 8079 ft | 262 kts | 31° |
| 2026-02-18 23:04 | 41.33452 | 28.26171 | 8014 ft | 261 kts | 31° |
| 2026-02-18 23:05 | 41.36406 | 28.28976 | 7908 ft | 261 kts | 31° |
| 2026-02-18 23:05 | 41.37882 | 28.30377 | 7822 ft | 261 kts | 31° |
| 2026-02-18 23:05 | 41.39360 | 28.31784 | 7769 ft | 261 kts | 31° |
| 2026-02-18 23:06 | 41.40835 | 28.33189 | 7706 ft | 260 kts | 31° |
| 2026-02-18 23:06 | 41.42308 | 28.34593 | 7645 ft | 260 kts | 31° |
| 2026-02-18 23:06 | 41.43780 | 28.35997 | 7524 ft | 261 kts | 31° |
| 2026-02-18 23:06 | 41.45255 | 28.37406 | 7182 ft | 261 kts | 31° |
| 2026-02-18 23:07 | 41.46728 | 28.38817 | 6781 ft | 258 kts | 31° |
| 2026-02-18 23:07 | 41.48173 | 28.40203 | 6370 ft | 254 kts | 31° |
| 2026-02-18 23:07 | 41.49603 | 28.41572 | 5960 ft | 252 kts | 31° |
| 2026-02-18 23:07 | 41.51021 | 28.42930 | 5572 ft | 250 kts | 31° |
| 2026-02-18 23:08 | 41.52426 | 28.44276 | 5257 ft | 246 kts | 31° |
| 2026-02-18 23:08 | 41.53819 | 28.45610 | 5210 ft | 248 kts | 31° |
| 2026-02-18 23:08 | 41.55187 | 28.46988 | 5092 ft | 243 kts | 38° |
| 2026-02-18 23:08 | 41.56238 | 28.48722 | 5007 ft | 239 kts | 55° |
| 2026-02-18 23:09 | 41.57133 | 28.53045 | 5021 ft | 246 kts | 79° |
| 2026-02-18 23:09 | 41.57350 | 28.55310 | 5018 ft | 246 kts | 79° |
| 2026-02-18 23:09 | 41.57570 | 28.57572 | 5018 ft | 246 kts | 79° |
| 2026-02-18 23:10 | 41.57789 | 28.59840 | 5018 ft | 246 kts | 78° |
| 2026-02-18 23:10 | 41.58008 | 28.62111 | 5018 ft | 246 kts | 78° |
| 2026-02-18 23:10 | 41.58224 | 28.64348 | 5017 ft | 247 kts | 79° |
| 2026-02-18 23:10 | 41.58195 | 28.66638 | 5014 ft | 251 kts | 99° |
| 2026-02-18 23:11 | 41.57596 | 28.68824 | 5011 ft | 250 kts | 120° |
| 2026-02-18 23:11 | 41.56538 | 28.70550 | 5007 ft | 233 kts | 141° |
| 2026-02-18 23:11 | 41.55203 | 28.71682 | 5008 ft | 221 kts | 160° |
| 2026-02-18 23:11 | 41.53775 | 28.72204 | 4983 ft | 209 kts | 178° |
| 2026-02-18 23:12 | 41.52336 | 28.72272 | 4752 ft | 205 kts | 184° |
| 2026-02-18 23:12 | 41.50913 | 28.72296 | 4467 ft | 204 kts | 184° |
| 2026-02-18 23:12 | 41.49497 | 28.72322 | 4174 ft | 203 kts | 185° |
| 2026-02-18 23:12 | 41.48095 | 28.72350 | 3914 ft | 199 kts | 185° |
| 2026-02-18 23:13 | 41.45410 | 28.72404 | 3383 ft | 186 kts | 185° |
| 2026-02-18 23:13 | 41.44117 | 28.72428 | 3125 ft | 185 kts | 186° |
| 2026-02-18 23:13 | 41.42846 | 28.72453 | 2864 ft | 180 kts | 186° |
| 2026-02-18 23:14 | 41.41602 | 28.72477 | 2611 ft | 177 kts | 187° |
| 2026-02-18 23:14 | 41.40379 | 28.72502 | 2364 ft | 171 kts | 187° |
| 2026-02-18 23:14 | 41.39252 | 28.72528 | 2147 ft | 153 kts | 188° |
| 2026-02-18 23:14 | 41.38223 | 28.72548 | 1936 ft | 144 kts | 188° |
| 2026-02-18 23:15 | 41.37237 | 28.72565 | 1739 ft | 140 kts | 189° |
| 2026-02-18 23:15 | 41.36267 | 28.72583 | 1543 ft | 139 kts | 188° |
| 2026-02-18 23:15 | 41.35301 | 28.72600 | 1346 ft | 138 kts | 187° |
| 2026-02-18 23:15 | 41.34348 | 28.72619 | 1142 ft | 136 kts | 185° |
| 2026-02-18 23:16 | 41.33414 | 28.72637 | 958 ft | 133 kts | 184° |
| 2026-02-18 23:16 | 41.32493 | 28.72654 | 775 ft | 132 kts | 184° |
| 2026-02-18 23:16 | 41.31578 | 28.72672 | 589 ft | 131 kts | 184° |
| 2026-02-18 23:16 | 41.30666 | 28.72691 | 417 ft | 131 kts | 182° |
| 2026-02-18 23:17 | 41.28874 | 28.72736 | 351 ft | 115 kts | 187° |
| 2026-02-18 23:17 | 41.28170 | 28.72734 | 331 ft | 88 kts | 180° |
| 2026-02-18 23:17 | 41.27620 | 28.72739 | 330 ft | 72 kts | 180° |
| 2026-02-18 23:18 | 41.27188 | 28.72756 | 330 ft | 45 kts | 179° |
| 2026-02-18 23:18 | 41.27005 | 28.72761 | 332 ft | 26 kts | 179° |
| 2026-02-18 23:18 | 41.26830 | 28.72765 | 334 ft | 24 kts | 179° |
| 2026-02-18 23:18 | 41.26726 | 28.72797 | 332 ft | 14 kts | 125° |
| 2026-02-18 23:19 | 41.26715 | 28.72916 | 334 ft | 14 kts | 95° |
| 2026-02-18 23:19 | 41.26720 | 28.73054 | 334 ft | 16 kts | 89° |
| 2026-02-18 23:19 | 41.26721 | 28.73200 | 334 ft | 16 kts | 88° |
| 2026-02-18 23:19 | 41.26711 | 28.73335 | 331 ft | 15 kts | 108° |
| 2026-02-18 23:20 | 41.26704 | 28.73456 | 334 ft | 4 kts | 90° |
| 2026-02-18 23:20 | 41.26704 | 28.73464 | 334 ft | 0 kts | 90° |